Tennessee Ridge, Tennessee
Current Conditions -  °F | °C
As of 8:58 PM on Thursday 18 Dec 2014 (Local Time) from KHOP Reporting Station
Overcast Overcast  
Wind Chill: 34°   Ceiling: 5500
Heat Index: 34°   Visibility: 10mi
Dew Point: 29°   Wind: 3mph
Humidity: 82%   Direction: 20°NNE
Pressure: 30.24"   Gusts: NA
Location:  36.31°N, 87.77°W
Report Text: KHOP 190258Z AUTO 02003KT 10SM SCT045 OVC055 01/M01 A3024 RMK AO2 SLPNO T00121015 52006
Loading
Personal Weather Stations






























Interactive Weather Map New forecast layout! Learn more

10-Day Weather Forecast

Advertisements
Track Severe Weather on mobile